Time;durP1;ratioP1;P1;durP2;ratioP2;P2;SDS_P1;SDS_P2;PMS_P1;PMS_P2;Temp;Humidity;BMP_temperature;BMP_pressure;BME280_temperature;BME280_humidity;BME280_pressure;Samples;Min_cycle;Max_cycle;Signal;HPM_P1;HPM_P2
2023/06/22 00:00:52;;;;;;;11.15;7.95;;;;;;;;;;5072404;28;20336;-59
2023/06/22 00:03:18;;;;;;;11.50;7.85;;;;;;;;;;5073868;28;20507;-59
2023/06/22 00:05:45;;;;;;;11.32;8.38;;;;;;;;;;5091006;28;20044;-60
2023/06/22 00:08:12;;;;;;;10.30;7.85;;;;;;;;;;5077929;28;20378;-60
2023/06/22 00:10:38;;;;;;;14.05;8.15;;;;;;;;;;5074859;28;20044;-59
2023/06/22 00:13:04;;;;;;;10.23;7.70;;;;;;;;;;5080290;28;20036;-59
2023/06/22 00:15:30;;;;;;;12.80;8.90;;;;;;;;;;5074034;28;20037;-59
2023/06/22 00:17:57;;;;;;;9.25;7.63;;;;;;;;;;5099939;28;20078;-59
2023/06/22 00:20:27;;;;;;;11.00;7.75;;;;;;;;;;5073947;28;20430;-60
2023/06/22 00:22:54;;;;;;;9.77;7.15;;;;;;;;;;5084378;28;20071;-60
2023/06/22 00:25:20;;;;;;;11.38;7.30;;;;;;;;;;5078288;28;20108;-59
2023/06/22 00:27:46;;;;;;;9.10;7.47;;;;;;;;;;5073896;28;20047;-60
2023/06/22 00:30:13;;;;;;;13.88;8.70;;;;;;;;;;5072593;28;20052;-60
2023/06/22 00:32:39;;;;;;;12.02;8.50;;;;;;;;;;5069318;28;20040;-59
2023/06/22 00:35:05;;;;;;;13.98;9.05;;;;;;;;;;5077045;28;20130;-59
2023/06/22 00:37:31;;;;;;;9.43;7.95;;;;;;;;;;5075761;28;20036;-60
2023/06/22 00:39:57;;;;;;;10.55;7.50;;;;;;;;;;5073036;28;20468;-59
2023/06/22 00:42:24;;;;;;;16.95;9.38;;;;;;;;;;5073203;28;20458;-60
2023/06/22 00:44:50;;;;;;;12.85;9.13;;;;;;;;;;5084103;28;20106;-60
2023/06/22 00:47:18;;;;;;;12.40;8.85;;;;;;;;;;5070447;28;20040;-60
2023/06/22 00:49:44;;;;;;;11.63;9.77;;;;;;;;;;5078267;28;20040;-59
2023/06/22 00:52:20;;;;;;;11.40;8.82;;;;;;;;;;5083414;28;20135;-60
2023/06/22 00:54:48;;;;;;;12.57;9.25;;;;;;;;;;5079670;28;20047;-60
2023/06/22 00:57:15;;;;;;;11.02;9.32;;;;;;;;;;5081698;28;20115;-60
2023/06/22 00:59:45;;;;;;;11.50;8.50;;;;;;;;;;5073264;28;20053;-59
2023/06/22 01:02:11;;;;;;;11.55;8.98;;;;;;;;;;5072008;28;20048;-59
2023/06/22 01:04:38;;;;;;;11.10;9.02;;;;;;;;;;5073587;28;20529;-59
2023/06/22 01:07:22;;;;;;;12.23;8.80;;;;;;;;;;5079213;28;20096;-59
2023/06/22 01:10:10;;;;;;;14.50;9.93;;;22.30;91.70;;;;;;5072425;28;20044;-59
2023/06/22 01:12:43;;;;;;;11.40;8.70;;;21.40;93.00;;;;;;5080384;28;20064;-59
2023/06/22 01:15:15;;;;;;;13.73;9.68;;;21.30;93.00;;;;;;5065759;28;20036;-59
2023/06/22 01:17:44;;;;;;;13.13;10.32;;;21.20;93.00;;;;;;5071725;28;20080;-59
2023/06/22 01:20:11;;;;;;;12.05;10.07;;;21.20;93.10;;;;;;5080953;28;20044;-60
2023/06/22 01:23:09;;;;;;;14.15;10.00;;;21.20;93.10;;;;;;5081809;28;20036;-59
2023/06/22 01:25:37;;;;;;;12.65;10.75;;;21.30;93.30;;;;;;5066840;28;20040;-59
2023/06/22 01:28:26;;;;;;;13.23;9.77;;;21.20;93.20;;;;;;5075068;28;20434;-59
2023/06/22 01:31:03;;;;;;;13.43;11.45;;;21.20;93.30;;;;;;5066795;28;20392;-59
2023/06/22 01:33:31;;;;;;;15.95;10.20;;;21.20;93.30;;;;;;5068051;28;20097;-59
2023/06/22 01:35:57;;;;;;;13.93;9.95;;;21.20;93.40;;;;;;5070479;28;20035;-59
2023/06/22 01:38:24;;;;;;;12.00;10.73;;;21.20;93.40;;;;;;5077220;28;20032;-60
2023/06/22 01:40:50;;;;;;;16.13;10.40;;;21.10;93.40;;;;;;5074231;28;20098;-60
2023/06/22 01:43:16;;;;;;;14.35;11.38;;;21.10;93.50;;;;;;5071657;28;20094;-60
2023/06/22 01:45:42;;;;;;;13.38;11.48;;;21.10;93.50;;;;;;5073290;28;20047;-59
2023/06/22 01:48:08;;;;;;;12.90;10.30;;;21.10;93.50;;;;;;5075887;28;20448;-60
2023/06/22 01:50:34;;;;;;;14.40;11.05;;;21.10;93.60;;;;;;5070777;28;20033;-59
2023/06/22 01:53:00;;;;;;;13.07;11.00;;;21.10;93.60;;;;;;5073778;28;20037;-60
2023/06/22 01:55:25;;;;;;;16.30;11.27;;;21.00;93.60;;;;;;5080813;28;20051;-59
2023/06/22 01:57:51;;;;;;;15.27;11.18;;;21.00;93.60;;;;;;5079029;28;20116;-60
2023/06/22 02:00:23;;;;;;;17.75;11.05;;;21.00;93.60;;;;;;5071532;28;20408;-60
2023/06/22 02:02:49;;;;;;;15.23;10.15;;;;;;;;;;5073737;28;20048;-59
2023/06/22 02:05:17;;;;;;;15.40;11.75;;;;;;;;;;5071438;28;20495;-59
2023/06/22 02:07:50;;;;;;;13.88;11.07;;;;;;;;;;5076182;28;20468;-59
2023/06/22 02:10:17;;;;;;;14.25;11.32;;;;;;;;;;5070846;28;20085;-59
2023/06/22 02:12:44;;;;;;;19.65;11.52;;;;;;;;;;5071694;28;20040;-60
2023/06/22 02:15:12;;;;;;;12.52;10.90;;;;;;;;;;5077161;28;20037;-60
2023/06/22 02:17:38;;;;;;;13.77;10.90;;;;;;;;;;5072589;28;20099;-59
2023/06/22 02:20:07;;;;;;;14.73;11.27;;;;;;;;;;5067777;28;20071;-60
2023/06/22 02:22:33;;;;;;;14.43;11.43;;;;;;;;;;5073185;28;20040;-59
2023/06/22 02:24:59;;;;;;;15.73;11.55;;;;;;;;;;5072042;28;20039;-60
2023/06/22 02:27:25;;;;;;;11.70;10.30;;;;;;;;;;5075716;28;20049;-60
2023/06/22 02:29:52;;;;;;;13.45;10.75;;;;;;;;;;5072225;28;20056;-60
2023/06/22 02:32:18;;;;;;;15.02;11.00;;;;;;;;;;5099719;27;20169;-60
2023/06/22 02:34:47;;;;;;;12.65;10.40;;;;;;;;;;5077173;28;20121;-60
2023/06/22 02:37:17;;;;;;;10.50;9.07;;;;;;;;;;5070376;28;20036;-60
2023/06/22 02:39:43;;;;;;;12.88;10.77;;;;;;;;;;5070651;28;20040;-59
2023/06/22 02:42:12;;;;;;;14.25;11.13;;;;;;;;;;5076164;28;20044;-59
2023/06/22 02:44:38;;;;;;;12.70;10.13;;;;;;;;;;5074605;28;20554;-59
2023/06/22 02:47:05;;;;;;;11.45;9.65;;;;;;;;;;5071213;28;20051;-59
2023/06/22 02:49:31;;;;;;;12.02;10.70;;;;;;;;;;5070105;28;20071;-60
2023/06/22 02:51:58;;;;;;;11.63;10.05;;;;;;;;;;5066573;28;20072;-60
2023/06/22 02:54:24;;;;;;;11.90;10.70;;;;;;;;;;5089222;28;20040;-60
2023/06/22 02:56:50;;;;;;;12.50;9.50;;;;;;;;;;5071704;28;20040;-61
2023/06/22 02:59:16;;;;;;;20.27;11.25;;;;;;;;;;5076026;28;20032;-59
2023/06/22 03:01:43;;;;;;;14.00;9.88;;;;;;;;;;5074878;28;20032;-60
2023/06/22 03:04:09;;;;;;;13.50;9.75;;;;;;;;;;5073755;28;20051;-60
2023/06/22 03:06:36;;;;;;;11.75;10.32;;;;;;;;;;5067916;28;20493;-60
2023/06/22 03:09:04;;;;;;;11.80;9.02;;;;;;;;;;5070612;28;20055;-60
2023/06/22 03:11:31;;;;;;;12.30;10.32;;;;;;;;;;5075097;28;20052;-60
2023/06/22 03:13:57;;;;;;;11.70;9.75;;;;;;;;;;5071584;28;20653;-60
2023/06/22 03:16:22;;;;;;;13.43;9.65;;;21.00;93.60;;;;;;5072280;28;20514;-60
2023/06/22 03:18:48;;;;;;;13.05;10.65;;;20.40;93.80;;;;;;5079225;28;20132;-60
2023/06/22 03:21:15;;;;;;;11.02;8.85;;;20.30;93.80;;;;;;5080711;28;20083;-60
2023/06/22 03:23:41;;;;;;;10.63;8.95;;;20.30;93.70;;;;;;5076513;28;20040;-60
2023/06/22 03:26:08;;;;;;;9.32;8.40;;;;;;;;;;5075206;28;20043;-60
2023/06/22 03:28:35;;;;;;;9.52;8.55;;;;;;;;;;5078151;28;20089;-60
2023/06/22 03:31:01;;;;;;;8.77;7.35;;;;;;;;;;5078450;28;20789;-60
2023/06/22 03:33:27;;;;;;;10.27;8.18;;;;;;;;;;5077509;28;20461;-60
2023/06/22 03:35:53;;;;;;;9.35;7.60;;;;;;;;;;5076467;28;20040;-59
2023/06/22 03:38:19;;;;;;;8.95;8.13;;;;;;;;;;5075433;28;20919;-60
2023/06/22 03:40:45;;;;;;;7.88;7.18;;;;;;;;;;5080839;28;20040;-59
2023/06/22 03:43:12;;;;;;;9.68;7.93;;;;;;;;;;5078135;28;20504;-60
2023/06/22 03:45:40;;;;;;;8.95;8.00;;;;;;;;;;5080692;28;20036;-59
2023/06/22 03:48:06;;;;;;;8.38;7.57;;;;;;;;;;5085718;28;20071;-60
2023/06/22 03:50:32;;;;;;;8.48;7.55;;;;;;;;;;5077670;28;20352;-60
2023/06/22 03:52:58;;;;;;;9.48;7.50;;;;;;;;;;5082080;28;20040;-60
2023/06/22 03:55:24;;;;;;;7.78;7.05;;;;;;;;;;5076692;28;20070;-59
2023/06/22 03:57:51;;;;;;;8.25;7.43;;;;;;;;;;5082723;28;20032;-60
2023/06/22 04:00:17;;;;;;;7.25;6.40;;;;;;;;;;5077463;28;20127;-60
2023/06/22 04:02:43;;;;;;;9.57;7.07;;;;;;;;;;5080864;28;20040;-60
2023/06/22 04:05:10;;;;;;;7.97;7.10;;;;;;;;;;5079325;28;20052;-59
2023/06/22 04:07:39;;;;;;;8.27;6.47;;;;;;;;;;5077909;28;20508;-59
2023/06/22 04:10:05;;;;;;;7.15;6.45;;;;;;;;;;5075224;28;20042;-59
2023/06/22 04:12:31;;;;;;;7.57;6.88;;;;;;;;;;5090871;28;20613;-58
2023/06/22 04:14:58;;;;;;;7.72;6.93;;;;;;;;;;5083213;28;20041;-58
2023/06/22 04:17:24;;;;;;;7.97;7.18;;;;;;;;;;5079446;28;20039;-59
2023/06/22 04:19:51;;;;;;;6.95;6.25;;;;;;;;;;5080363;28;20043;-59
2023/06/22 04:22:17;;;;;;;8.30;7.50;;;;;;;;;;5067473;28;20044;-59
2023/06/22 04:24:44;;;;;;;8.50;7.60;;;;;;;;;;5080833;28;20419;-59
2023/06/22 04:27:11;;;;;;;8.98;8.05;;;;;;;;;;5074978;28;20048;-59
2023/06/22 04:29:38;;;;;;;8.50;7.25;;;;;;;;;;5075965;28;20064;-59
2023/06/22 04:32:05;;;;;;;8.77;7.88;;;;;;;;;;5077224;28;20124;-58
2023/06/22 04:34:31;;;;;;;9.98;7.65;;;;;;;;;;5075629;28;20419;-58
2023/06/22 04:36:57;;;;;;;18.58;9.10;;;;;;;;;;5075822;28;20079;-58
2023/06/22 04:39:24;;;;;;;9.52;8.52;;;;;;;;;;5075734;28;20115;-58
2023/06/22 04:41:51;;;;;;;11.70;8.90;;;;;;;;;;5071514;28;20572;-58
2023/06/22 04:44:26;;;;;;;9.27;8.10;;;;;;;;;;5070924;28;20036;-60
2023/06/22 04:47:01;;;;;;;10.57;7.57;;;;;;;;;;5072867;28;20554;-58
2023/06/22 04:49:35;;;;;;;11.25;9.25;;;;;;;;;;5070760;28;20051;-58
2023/06/22 04:52:08;;;;;;;9.77;8.77;;;;;;;;;;5070350;28;20131;-58
2023/06/22 04:54:36;;;;;;;10.57;9.25;;;;;;;;;;5069705;28;20396;-58
2023/06/22 04:57:09;;;;;;;7.47;6.70;;;;;;;;;;5069313;28;20099;-58
2023/06/22 04:59:36;;;;;;;10.07;8.05;;;;;;;;;;5072554;28;20055;-57
2023/06/22 05:02:02;;;;;;;11.13;8.63;;;;;;;;;;5070421;28;20096;-58
2023/06/22 05:04:32;;;;;;;10.27;8.45;;;;;;;;;;5072584;28;20093;-58
2023/06/22 05:07:00;;;;;;;11.18;9.20;;;;;;;;;;5064257;28;20505;-58
2023/06/22 05:09:26;;;;;;;12.73;9.02;;;;;;;;;;5069051;28;20160;-58
2023/06/22 05:11:52;;;;;;;11.65;9.05;;;;;;;;;;5069230;28;20044;-58
2023/06/22 05:14:19;;;;;;;9.60;7.72;;;;;;;;;;5070129;28;20508;-58
2023/06/22 05:16:46;;;;;;;11.27;8.48;;;;;;;;;;5078125;28;20051;-60
2023/06/22 05:19:12;;;;;;;9.95;8.13;;;;;;;;;;5071143;28;20051;-58
2023/06/22 05:21:38;;;;;;;9.82;7.57;;;;;;;;;;5076909;28;20079;-58
2023/06/22 05:24:05;;;;;;;10.93;7.68;;;;;;;;;;5072924;28;20453;-59
2023/06/22 05:26:32;;;;;;;9.73;7.55;;;;;;;;;;5086386;28;20568;-59
2023/06/22 05:28:58;;;;;;;13.63;9.38;;;;;;;;;;5068042;28;20491;-59
2023/06/22 05:31:24;;;;;;;12.10;9.07;;;;;;;;;;5101607;27;20056;-58
2023/06/22 05:33:52;;;;;;;10.45;7.57;;;;;;;;;;5068127;28;20345;-58
2023/06/22 05:36:19;;;;;;;9.93;8.32;;;;;;;;;;5069925;28;20036;-63
2023/06/22 05:38:46;;;;;;;8.45;7.30;;;;;;;;;;5067611;28;20037;-59
2023/06/22 05:41:12;;;;;;;9.38;8.00;;;;;;;;;;5071389;28;20143;-59
2023/06/22 05:43:38;;;;;;;8.05;7.18;;;;;;;;;;5070695;28;20052;-59
2023/06/22 05:46:05;;;;;;;9.38;7.30;;;;;;;;;;5071092;28;20044;-59
2023/06/22 05:48:31;;;;;;;12.00;8.02;;;;;;;;;;5076213;28;20052;-59
2023/06/22 05:50:57;;;;;;;9.80;8.82;;;;;;;;;;5069744;28;20507;-59
2023/06/22 05:53:24;;;;;;;10.40;7.88;;;;;;;;;;5084253;28;20036;-59
2023/06/22 05:55:50;;;;;;;10.88;8.52;;;;;;;;;;5070082;28;20426;-59
2023/06/22 05:58:16;;;;;;;12.60;8.57;;;;;;;;;;5075671;28;20047;-59
2023/06/22 06:00:43;;;;;;;10.43;8.52;;;;;;;;;;5068782;28;20051;-59
2023/06/22 06:03:09;;;;;;;12.40;8.50;;;;;;;;;;5071067;28;20487;-59
2023/06/22 06:05:36;;;;;;;10.63;7.70;;;;;;;;;;5068240;28;20041;-59
2023/06/22 06:08:04;;;;;;;9.38;7.70;;;;;;;;;;5075373;28;20048;-59
2023/06/22 06:10:30;;;;;;;9.93;7.68;;;;;;;;;;5069111;28;20048;-59
2023/06/22 06:12:57;;;;;;;12.27;7.97;;;;;;;;;;5068463;28;20044;-59
2023/06/22 06:15:23;;;;;;;11.10;7.07;;;;;;;;;;5075273;28;20683;-59
2023/06/22 06:17:50;;;;;;;9.88;6.85;;;;;;;;;;5070818;28;20040;-59
2023/06/22 06:20:18;;;;;;;11.48;8.40;;;;;;;;;;5070592;28;20038;-59
2023/06/22 06:22:45;;;;;;;9.90;7.60;;;;;;;;;;5099110;27;20049;-59
2023/06/22 06:25:15;;;;;;;10.73;7.75;;;;;;;;;;5075483;28;20507;-59
2023/06/22 06:27:42;;;;;;;9.73;7.45;;;;;;;;;;5070328;28;20040;-59
2023/06/22 06:30:09;;;;;;;10.82;8.45;;;;;;;;;;5068326;28;20052;-59
2023/06/22 06:32:35;;;;;;;10.82;8.00;;;;;;;;;;5065809;28;20051;-59
2023/06/22 06:35:01;;;;;;;11.35;8.13;;;;;;;;;;5074131;28;20125;-59
2023/06/22 06:37:27;;;;;;;9.38;8.13;;;;;;;;;;5068437;28;20044;-59
2023/06/22 06:39:54;;;;;;;11.35;6.88;;;;;;;;;;5067954;28;20136;-59
2023/06/22 06:42:20;;;;;;;9.65;7.15;;;;;;;;;;5068007;28;20044;-59
2023/06/22 06:44:46;;;;;;;8.30;7.32;;;;;;;;;;5071965;28;20048;-59
2023/06/22 06:47:12;;;;;;;12.95;8.07;;;;;;;;;;5069363;28;20079;-59
2023/06/22 06:49:38;;;;;;;12.32;8.43;;;;;;;;;;5073385;28;20449;-59
2023/06/22 06:52:05;;;;;;;11.70;7.30;;;;;;;;;;5076288;28;20041;-59
2023/06/22 06:54:31;;;;;;;12.20;8.18;;;;;;;;;;5071629;28;20036;-59
2023/06/22 06:56:57;;;;;;;10.68;7.43;;;;;;;;;;5070483;28;20042;-59
2023/06/22 06:59:23;;;;;;;9.98;7.35;;;;;;;;;;5081822;28;20119;-59
2023/06/22 07:01:49;;;;;;;9.40;6.60;;;;;;;;;;5073394;28;20148;-59
2023/06/22 07:04:15;;;;;;;10.07;6.30;;;;;;;;;;5068348;28;20063;-59
2023/06/22 07:06:42;;;;;;;10.50;6.72;;;;;;;;;;5066224;28;20144;-59
2023/06/22 07:09:08;;;;;;;9.73;6.78;;;;;;;;;;5071532;28;20439;-59
2023/06/22 07:11:36;;;;;;;10.73;7.15;;;;;;;;;;5071926;28;20044;-59
2023/06/22 07:14:02;;;;;;;8.63;7.10;;;;;;;;;;5070667;28;20494;-60
2023/06/22 07:16:29;;;;;;;8.10;6.43;;;;;;;;;;5064606;28;20032;-60
2023/06/22 07:18:56;;;;;;;10.25;7.30;;;;;;;;;;5066889;28;20254;-60
2023/06/22 07:21:22;;;;;;;10.88;7.75;;;;;;;;;;5069876;28;20050;-60
2023/06/22 07:23:48;;;;;;;10.75;8.57;;;;;;;;;;5065290;28;20121;-60
2023/06/22 07:26:15;;;;;;;9.25;6.45;;;;;;;;;;5069278;28;20097;-60
2023/06/22 07:28:42;;;;;;;8.13;6.75;;;;;;;;;;5070518;28;20090;-60
2023/06/22 07:31:08;;;;;;;10.25;7.80;;;;;;;;;;5070077;28;20107;-60
2023/06/22 07:33:34;;;;;;;12.13;7.97;;;20.30;93.70;;;;;;5066277;28;20052;-60
2023/06/22 07:35:59;;;;;;;10.90;8.02;;;21.40;95.50;;;;;;5065973;28;20481;-60
2023/06/22 07:38:25;;;;;;;11.32;7.85;;;21.40;95.20;;;;;;5070362;28;20890;-60
2023/06/22 07:40:53;;;;;;;12.00;7.43;;;21.40;95.30;;;;;;5068168;28;20227;-60
2023/06/22 07:43:19;;;;;;;8.48;6.53;;;21.50;95.30;;;;;;5066912;28;20040;-60
2023/06/22 07:45:54;;;;;;;8.38;6.38;;;21.50;95.30;;;;;;5073862;28;20027;-60
2023/06/22 07:48:22;;;;;;;8.38;6.35;;;21.50;95.30;;;;;;5064717;28;20088;-60
2023/06/22 07:50:49;;;;;;;12.25;7.03;;;;;;;;;;5065358;28;20047;-60
2023/06/22 07:53:16;;;;;;;7.88;6.03;;;;;;;;;;5075325;28;20129;-60
2023/06/22 07:55:42;;;;;;;8.43;6.30;;;;;;;;;;5072530;28;20052;-59
2023/06/22 07:58:08;;;;;;;11.25;5.88;;;;;;;;;;5067479;28;20060;-60
2023/06/22 08:00:34;;;;;;;8.90;5.30;;;;;;;;;;5067939;28;20051;-60
2023/06/22 08:03:03;;;;;;;7.57;5.35;;;;;;;;;;5068493;28;20041;-60
2023/06/22 08:05:30;;;;;;;7.53;5.90;;;;;;;;;;5073658;28;20651;-60
2023/06/22 08:07:56;;;;;;;6.78;4.70;;;;;;;;;;5070929;28;20105;-59
2023/06/22 08:10:22;;;;;;;8.55;5.03;;;;;;;;;;5070537;28;20048;-61
2023/06/22 08:12:48;;;;;;;6.78;4.75;;;;;;;;;;5075562;28;20068;-60
2023/06/22 08:15:14;;;;;;;6.85;5.03;;;;;;;;;;5076336;28;20613;-60
2023/06/22 08:17:40;;;;;;;6.38;4.70;;;;;;;;;;5074557;28;20424;-60
2023/06/22 08:20:13;;;;;;;6.75;4.82;;;;;;;;;;5069769;28;20032;-60
2023/06/22 08:22:40;;;;;;;8.45;5.10;;;;;;;;;;5069231;28;20051;-60
2023/06/22 08:25:06;;;;;;;6.28;5.30;;;;;;;;;;5071843;28;20387;-60
2023/06/22 08:27:33;;;;;;;11.07;5.72;;;;;;;;;;5075772;28;20641;-60
2023/06/22 08:29:59;;;;;;;6.45;4.68;;;;;;;;;;5071998;28;20549;-60
2023/06/22 08:32:26;;;;;;;8.88;5.13;;;;;;;;;;5070697;28;20063;-60
2023/06/22 08:34:56;;;;;;;6.18;4.82;;;;;;;;;;5076296;28;20059;-60
2023/06/22 08:37:30;;;;;;;7.57;5.43;;;;;;;;;;5072928;28;20040;-60
2023/06/22 08:40:01;;;;;;;6.40;4.80;;;;;;;;;;5070713;28;20043;-60
2023/06/22 08:42:27;;;;;;;7.25;4.93;;;;;;;;;;5069966;28;20503;-60
2023/06/22 08:44:53;;;;;;;6.00;4.65;;;;;;;;;;5076047;28;20078;-60
2023/06/22 08:47:21;;;;;;;7.05;4.15;;;;;;;;;;5071057;28;20047;-60
2023/06/22 08:49:47;;;;;;;6.53;4.43;;;;;;;;;;5071549;28;20040;-60
2023/06/22 08:52:13;;;;;;;6.18;4.25;;;;;;;;;;5076478;28;20154;-60
2023/06/22 08:54:39;;;;;;;6.00;4.10;;;;;;;;;;5070103;28;20123;-60
2023/06/22 08:57:06;;;;;;;8.15;4.28;;;;;;;;;;5073018;28;20035;-60
2023/06/22 08:59:32;;;;;;;7.03;5.03;;;;;;;;;;5071276;28;20033;-60
2023/06/22 09:01:58;;;;;;;6.18;4.40;;;;;;;;;;5070784;28;20032;-60
2023/06/22 09:04:25;;;;;;;5.75;4.47;;;;;;;;;;5071713;28;20156;-60
2023/06/22 09:06:52;;;;;;;5.78;3.72;;;;;;;;;;5070966;28;20040;-60
2023/06/22 09:09:18;;;;;;;6.10;4.65;;;;;;;;;;5067794;28;20036;-60
2023/06/22 09:11:45;;;;;;;5.47;3.95;;;;;;;;;;5071885;28;20036;-60
2023/06/22 09:14:11;;;;;;;6.68;3.90;;;;;;;;;;5070420;28;20044;-60
2023/06/22 09:16:37;;;;;;;7.80;4.18;;;;;;;;;;5072125;28;20028;-60
2023/06/22 09:19:04;;;;;;;5.60;3.95;;;;;;;;;;5076163;28;20790;-60
2023/06/22 09:21:30;;;;;;;5.72;4.05;;;;;;;;;;5074305;28;20040;-60
2023/06/22 09:23:56;;;;;;;5.53;3.83;;;;;;;;;;5073050;28;20048;-60
2023/06/22 09:26:23;;;;;;;8.48;4.07;;;;;;;;;;5069967;28;20535;-60
2023/06/22 09:28:49;;;;;;;6.82;4.07;;;21.60;95.30;;;;;;5076730;28;20051;-60
2023/06/22 09:31:16;;;;;;;5.75;3.75;;;24.40;94.50;;;;;;5071328;28;20408;-60
2023/06/22 09:33:42;;;;;;;5.57;3.45;;;;;;;;;;5070795;28;20660;-60
2023/06/22 09:36:08;;;;;;;4.38;3.42;;;;;;;;;;5069140;28;20044;-60
2023/06/22 09:38:35;;;;;;;7.43;3.72;;;;;;;;;;5073103;28;20144;-60
2023/06/22 09:41:01;;;;;;;6.75;4.20;;;;;;;;;;5067228;28;20040;-61
2023/06/22 09:43:28;;;;;;;6.00;3.42;;;;;;;;;;5067971;28;20044;-60
2023/06/22 09:45:54;;;;;;;4.70;2.90;;;;;;;;;;5096620;27;20040;-60
2023/06/22 09:48:20;;;;;;;4.22;3.42;;;;;;;;;;5067242;28;20511;-61
2023/06/22 09:50:46;;;;;;;6.03;4.15;;;;;;;;;;5068606;28;20083;-60
2023/06/22 09:53:12;;;;;;;4.65;3.60;;;;;;;;;;5067532;28;20045;-60
2023/06/22 09:55:39;;;;;;;4.60;3.85;;;;;;;;;;5066980;28;20148;-60
2023/06/22 09:58:05;;;;;;;4.95;3.70;;;;;;;;;;5069605;28;20040;-60
2023/06/22 10:00:31;;;;;;;8.07;4.20;;;;;;;;;;5070052;28;20427;-60
2023/06/22 10:02:57;;;;;;;4.03;2.88;;;;;;;;;;5067029;28;20408;-60
2023/06/22 10:05:25;;;;;;;3.55;2.50;;;;;;;;;;5074430;28;20491;-60
2023/06/22 10:07:51;;;;;;;3.70;2.83;;;;;;;;;;5074862;28;20396;-60
2023/06/22 10:10:17;;;;;;;3.50;2.80;;;;;;;;;;5068662;28;20070;-61
2023/06/22 10:12:46;;;;;;;3.95;2.83;;;;;;;;;;5083435;28;20045;-60
2023/06/22 10:15:12;;;;;;;5.32;2.78;;;;;;;;;;5075869;28;20032;-60
2023/06/22 10:17:38;;;;;;;3.90;2.97;;;;;;;;;;5076503;28;20032;-60
2023/06/22 10:20:11;;;;;;;4.13;3.20;;;;;;;;;;5072923;28;20032;-61
2023/06/22 10:22:38;;;;;;;4.63;2.83;;;;;;;;;;5099503;28;20037;-61
2023/06/22 10:25:05;;;;;;;5.22;2.90;;;24.40;94.50;;;;;;5069316;28;20040;-60
2023/06/22 10:27:31;;;;;;;5.88;2.78;;;26.10;92.50;;;;;;5084997;28;20080;-61
2023/06/22 10:29:57;;;;;;;5.03;3.05;;;26.10;92.30;;;;;;5071112;28;20045;-60
2023/06/22 10:32:23;;;;;;;5.47;3.00;;;26.20;92.20;;;;;;5076070;28;20067;-61
2023/06/22 10:34:48;;;;;;;4.43;2.80;;;26.30;92.10;;;;;;5073157;28;20067;-60
2023/06/22 10:37:14;;;;;;;3.80;3.03;;;26.30;92.00;;;;;;5072242;28;20044;-61
2023/06/22 10:39:40;;;;;;;3.55;2.78;;;26.40;91.90;;;;;;5069505;28;20036;-61
2023/06/22 10:42:06;;;;;;;3.65;2.63;;;26.50;91.80;;;;;;5074097;28;20070;-61
2023/06/22 10:44:32;;;;;;;4.88;2.78;;;26.60;91.90;;;;;;5101276;28;20036;-61
2023/06/22 10:46:57;;;;;;;3.45;2.40;;;26.60;91.60;;;;;;5070870;28;20040;-60
2023/06/22 10:49:23;;;;;;;4.18;2.55;;;26.70;91.50;;;;;;5074800;28;20503;-60
2023/06/22 10:51:49;;;;;;;3.60;2.60;;;26.80;91.50;;;;;;5078769;28;20028;-61
2023/06/22 10:54:18;;;;;;;3.80;2.67;;;26.80;91.30;;;;;;5074209;28;20043;-60
2023/06/22 10:56:44;;;;;;;2.83;2.10;;;26.90;91.20;;;;;;5072163;28;20098;-61
2023/06/22 10:59:09;;;;;;;3.25;2.65;;;27.00;91.00;;;;;;5068407;28;20028;-61
2023/06/22 11:01:36;;;;;;;7.00;3.20;;;27.00;90.80;;;;;;5075018;28;20039;-61
2023/06/22 11:04:02;;;;;;;3.05;2.20;;;27.10;91.00;;;;;;5074492;28;20171;-60
2023/06/22 11:06:28;;;;;;;4.40;2.63;;;27.20;90.70;;;;;;5069431;28;20686;-61
2023/06/22 11:08:54;;;;;;;3.05;2.50;;;27.20;90.50;;;;;;5068661;28;20194;-61
2023/06/22 11:11:20;;;;;;;4.32;2.83;;;27.30;90.50;;;;;;5078325;28;20049;-60
2023/06/22 11:13:45;;;;;;;4.93;2.28;;;27.30;90.30;;;;;;5064297;28;20068;-61
2023/06/22 11:16:11;;;;;;;3.70;3.03;;;27.40;90.20;;;;;;5067346;28;20145;-61
2023/06/22 11:18:37;;;;;;;3.30;2.15;;;27.40;90.10;;;;;;5073193;28;20097;-61
2023/06/22 11:21:03;;;;;;;4.60;3.13;;;27.50;90.00;;;;;;5071131;28;20044;-61
2023/06/22 11:23:29;;;;;;;4.35;3.03;;;27.50;89.90;;;;;;5071857;28;20044;-61
2023/06/22 11:25:55;;;;;;;3.65;2.60;;;27.60;89.80;;;;;;5073132;28;20535;-61
2023/06/22 11:28:21;;;;;;;5.63;2.83;;;27.60;89.50;;;;;;5072386;28;20040;-60
2023/06/22 11:30:46;;;;;;;3.80;2.90;;;27.70;89.30;;;;;;5069738;28;20065;-61
2023/06/22 11:33:12;;;;;;;3.22;2.33;;;27.70;89.70;;;;;;5069274;28;20471;-61
2023/06/22 11:35:38;;;;;;;3.38;2.60;;;27.70;89.00;;;;;;5070136;28;20037;-61
2023/06/22 11:38:04;;;;;;;4.80;2.80;;;27.80;89.00;;;;;;5091101;28;20097;-60
2023/06/22 11:40:30;;;;;;;4.75;3.00;;;27.80;89.00;;;;;;5072986;28;20041;-61
2023/06/22 11:42:56;;;;;;;4.90;2.47;;;27.90;88.90;;;;;;5076536;28;20063;-60
2023/06/22 11:45:22;;;;;;;3.33;2.42;;;27.90;88.80;;;;;;5072701;28;20076;-60
2023/06/22 11:47:48;;;;;;;7.10;2.55;;;28.00;88.80;;;;;;5073144;28;20475;-60
2023/06/22 11:50:14;;;;;;;4.78;3.03;;;28.00;88.70;;;;;;5075814;28;20039;-60
2023/06/22 11:52:40;;;;;;;4.30;2.70;;;28.00;88.50;;;;;;5073271;28;20393;-60
2023/06/22 11:55:06;;;;;;;3.83;2.55;;;28.10;88.30;;;;;;5079400;28;20094;-60
2023/06/22 11:57:35;;;;;;;3.45;2.50;;;28.00;88.00;;;;;;5078199;28;20042;-60
2023/06/22 12:00:06;;;;;;;3.85;2.55;;;28.10;87.90;;;;;;5074075;28;20353;-60
2023/06/22 12:02:32;;;;;;;3.72;2.55;;;28.10;87.80;;;;;;5070207;28;20051;-60
2023/06/22 12:04:58;;;;;;;6.00;2.75;;;28.20;87.80;;;;;;5073533;28;20499;-60
2023/06/22 12:07:24;;;;;;;4.40;2.72;;;28.10;87.70;;;;;;5075004;28;20123;-60
2023/06/22 12:09:49;;;;;;;4.28;2.40;;;28.10;87.60;;;;;;5076000;28;20389;-60
2023/06/22 12:12:15;;;;;;;4.07;2.75;;;28.20;87.60;;;;;;5076303;28;20082;-60
2023/06/22 12:14:41;;;;;;;4.20;2.97;;;28.10;87.30;;;;;;5071796;28;20132;-60
2023/06/22 12:17:07;;;;;;;3.65;2.47;;;28.10;87.20;;;;;;5072532;28;20036;-60
2023/06/22 12:19:32;;;;;;;2.95;2.30;;;28.10;87.00;;;;;;5073628;28;20036;-60
2023/06/22 12:21:58;;;;;;;4.53;3.00;;;28.10;86.90;;;;;;5070520;28;20446;-60
2023/06/22 12:24:24;;;;;;;3.13;2.55;;;28.10;86.70;;;;;;5114132;27;20120;-60
2023/06/22 12:26:50;;;;;;;5.25;2.40;;;28.10;86.10;;;;;;5075374;28;20068;-60
2023/06/22 12:29:15;;;;;;;4.63;2.63;;;28.00;86.00;;;;;;5077837;28;20033;-60
2023/06/22 12:31:41;;;;;;;2.58;2.03;;;28.00;86.30;;;;;;5078762;28;20044;-61
2023/06/22 12:34:07;;;;;;;3.13;2.20;;;28.00;86.60;;;;;;5072411;28;20063;-61
2023/06/22 12:36:33;;;;;;;3.97;2.08;;;27.90;85.30;;;;;;5076260;28;20081;-61
2023/06/22 12:38:58;;;;;;;2.70;2.03;;;27.90;85.30;;;;;;5075319;28;20032;-61
2023/06/22 12:41:24;;;;;;;3.28;2.70;;;27.90;85.10;;;;;;5077753;28;20094;-61
2023/06/22 12:43:50;;;;;;;3.85;2.50;;;27.80;84.60;;;;;;5084348;28;20260;-61
2023/06/22 12:46:16;;;;;;;2.20;1.65;;;27.80;84.80;;;;;;5075228;28;20039;-61
2023/06/22 12:48:42;;;;;;;7.53;2.22;;;27.80;84.50;;;;;;5073147;28;20063;-61
2023/06/22 12:51:09;;;;;;;3.08;1.90;;;27.70;84.20;;;;;;5075955;28;20398;-61
2023/06/22 12:53:35;;;;;;;3.95;2.10;;;27.70;84.20;;;;;;5080637;28;20058;-61
2023/06/22 12:56:01;;;;;;;2.25;1.85;;;27.70;83.90;;;;;;5074834;28;20044;-61
2023/06/22 12:58:27;;;;;;;2.85;2.20;;;27.60;83.60;;;;;;5068271;28;20063;-61
2023/06/22 13:00:53;;;;;;;4.15;2.10;;;27.60;83.40;;;;;;5075553;28;20085;-61
2023/06/22 13:03:19;;;;;;;4.03;2.05;;;27.60;83.30;;;;;;5077878;28;20044;-61
2023/06/22 13:05:45;;;;;;;3.90;2.00;;;27.60;83.00;;;;;;5071057;28;20484;-61
2023/06/22 13:08:10;;;;;;;5.00;1.98;;;27.50;82.70;;;;;;5072827;28;20032;-61
2023/06/22 13:10:36;;;;;;;3.40;2.13;;;27.50;82.50;;;;;;5081410;28;20051;-61
2023/06/22 13:13:02;;;;;;;3.38;2.40;;;27.40;82.30;;;;;;5075268;28;20047;-61
2023/06/22 13:15:28;;;;;;;3.00;1.90;;;27.40;82.20;;;;;;5071004;28;20079;-61
2023/06/22 13:17:55;;;;;;;3.13;1.88;;;27.40;82.00;;;;;;5105271;27;20262;-61
2023/06/22 13:20:21;;;;;;;2.17;1.55;;;27.40;81.80;;;;;;5074442;28;20028;-61
2023/06/22 13:22:47;;;;;;;3.83;1.83;;;27.30;81.60;;;;;;5077340;28;20046;-61
2023/06/22 13:25:13;;;;;;;2.05;1.60;;;27.30;81.60;;;;;;5073640;28;20510;-61
2023/06/22 13:27:40;;;;;;;2.20;1.70;;;27.20;81.30;;;;;;5070569;28;20380;-61
2023/06/22 13:30:06;;;;;;;3.97;1.92;;;27.20;81.20;;;;;;5064187;28;20701;-61
2023/06/22 13:32:32;;;;;;;5.47;1.52;;;27.20;81.10;;;;;;5072269;28;20185;-61
2023/06/22 13:34:58;;;;;;;2.50;1.63;;;27.10;80.90;;;;;;5072056;28;20143;-61
2023/06/22 13:37:25;;;;;;;3.30;1.77;;;27.10;81.00;;;;;;5089110;28;20036;-61
2023/06/22 13:39:51;;;;;;;2.63;1.70;;;27.00;80.90;;;;;;5080798;28;20078;-61
2023/06/22 13:42:17;;;;;;;4.32;1.95;;;27.00;80.80;;;;;;5079349;28;20044;-61
2023/06/22 13:44:42;;;;;;;4.32;1.60;;;27.00;80.80;;;;;;5071635;28;20381;-61
2023/06/22 13:47:08;;;;;;;4.95;1.80;;;26.90;80.80;;;;;;5072481;28;20175;-61
2023/06/22 13:49:34;;;;;;;3.80;1.40;;;26.90;80.60;;;;;;5075872;28;20438;-62